sensor_id;sensor_type;location;lat;lon;timestamp;temperature;humidity
66928;DHT22;59882;45.624;11.698;2022-12-18T00:02:13;6.60;72.70
66928;DHT22;59882;45.624;11.698;2022-12-18T00:04:38;6.60;72.80
66928;DHT22;59882;45.624;11.698;2022-12-18T00:07:04;6.60;73.00
66928;DHT22;59882;45.624;11.698;2022-12-18T00:09:30;6.50;73.10
66928;DHT22;59882;45.624;11.698;2022-12-18T00:11:55;6.50;73.20
66928;DHT22;59882;45.624;11.698;2022-12-18T00:14:21;6.50;73.20
66928;DHT22;59882;45.624;11.698;2022-12-18T00:16:47;6.50;73.20
66928;DHT22;59882;45.624;11.698;2022-12-18T00:19:13;6.40;73.30
66928;DHT22;59882;45.624;11.698;2022-12-18T00:21:40;6.40;73.40
66928;DHT22;59882;45.624;11.698;2022-12-18T00:24:06;6.30;73.60
66928;DHT22;59882;45.624;11.698;2022-12-18T00:26:34;6.30;73.70
66928;DHT22;59882;45.624;11.698;2022-12-18T00:29:06;6.30;73.80
66928;DHT22;59882;45.624;11.698;2022-12-18T00:31:33;6.30;73.90
66928;DHT22;59882;45.624;11.698;2022-12-18T00:33:59;6.20;74.10
66928;DHT22;59882;45.624;11.698;2022-12-18T00:36:27;6.20;74.10
66928;DHT22;59882;45.624;11.698;2022-12-18T00:38:54;6.10;74.20
66928;DHT22;59882;45.624;11.698;2022-12-18T00:41:20;6.10;74.30
66928;DHT22;59882;45.624;11.698;2022-12-18T00:44:07;6.00;74.50
66928;DHT22;59882;45.624;11.698;2022-12-18T00:46:33;6.00;74.60
66928;DHT22;59882;45.624;11.698;2022-12-18T00:48:59;5.90;74.60
66928;DHT22;59882;45.624;11.698;2022-12-18T00:51:25;5.90;74.70
66928;DHT22;59882;45.624;11.698;2022-12-18T00:53:50;5.90;74.90
66928;DHT22;59882;45.624;11.698;2022-12-18T00:56:16;5.90;74.90
66928;DHT22;59882;45.624;11.698;2022-12-18T00:58:42;5.80;75.00
66928;DHT22;59882;45.624;11.698;2022-12-18T01:01:07;5.90;75.10
66928;DHT22;59882;45.624;11.698;2022-12-18T01:03:34;5.80;75.20
66928;DHT22;59882;45.624;11.698;2022-12-18T01:06:04;5.80;75.20
66928;DHT22;59882;45.624;11.698;2022-12-18T01:08:30;5.80;75.20
66928;DHT22;59882;45.624;11.698;2022-12-18T01:10:55;5.80;75.30
66928;DHT22;59882;45.624;11.698;2022-12-18T01:13:21;5.80;75.40
66928;DHT22;59882;45.624;11.698;2022-12-18T01:15:50;5.80;75.40
66928;DHT22;59882;45.624;11.698;2022-12-18T01:18:16;5.80;75.50
66928;DHT22;59882;45.624;11.698;2022-12-18T01:20:42;5.80;75.50
66928;DHT22;59882;45.624;11.698;2022-12-18T01:23:07;5.80;75.60
66928;DHT22;59882;45.624;11.698;2022-12-18T01:25:35;5.70;75.60
66928;DHT22;59882;45.624;11.698;2022-12-18T01:28:01;5.70;75.70
66928;DHT22;59882;45.624;11.698;2022-12-18T01:30:27;5.60;75.60
66928;DHT22;59882;45.624;11.698;2022-12-18T01:32:53;5.60;75.60
66928;DHT22;59882;45.624;11.698;2022-12-18T01:35:18;5.60;75.50
66928;DHT22;59882;45.624;11.698;2022-12-18T01:37:44;5.70;75.50
66928;DHT22;59882;45.624;11.698;2022-12-18T01:40:10;5.60;75.30
66928;DHT22;59882;45.624;11.698;2022-12-18T01:42:36;5.70;75.30
66928;DHT22;59882;45.624;11.698;2022-12-18T01:50:38;5.70;74.90
66928;DHT22;59882;45.624;11.698;2022-12-18T01:53:17;5.70;74.80
66928;DHT22;59882;45.624;11.698;2022-12-18T01:55:50;5.60;74.60
66928;DHT22;59882;45.624;11.698;2022-12-18T01:58:17;5.70;74.30
66928;DHT22;59882;45.624;11.698;2022-12-18T02:00:43;5.70;74.40
66928;DHT22;59882;45.624;11.698;2022-12-18T02:03:09;5.70;74.20
66928;DHT22;59882;45.624;11.698;2022-12-18T02:05:52;5.70;74.10
66928;DHT22;59882;45.624;11.698;2022-12-18T02:11:33;5.60;73.40
66928;DHT22;59882;45.624;11.698;2022-12-18T02:16:52;5.60;74.00
66928;DHT22;59882;45.624;11.698;2022-12-18T02:27:37;5.50;74.70
66928;DHT22;59882;45.624;11.698;2022-12-18T02:30:04;5.50;74.80
66928;DHT22;59882;45.624;11.698;2022-12-18T02:32:34;5.50;74.80
66928;DHT22;59882;45.624;11.698;2022-12-18T02:35:02;5.50;74.90
66928;DHT22;59882;45.624;11.698;2022-12-18T02:37:30;5.50;75.10
66928;DHT22;59882;45.624;11.698;2022-12-18T02:39:59;5.50;75.20
66928;DHT22;59882;45.624;11.698;2022-12-18T02:42:26;5.50;75.50
66928;DHT22;59882;45.624;11.698;2022-12-18T02:44:52;5.40;75.60
66928;DHT22;59882;45.624;11.698;2022-12-18T02:47:21;5.40;75.60
66928;DHT22;59882;45.624;11.698;2022-12-18T02:58:18;5.40;75.90
66928;DHT22;59882;45.624;11.698;2022-12-18T03:00:53;5.40;76.10
66928;DHT22;59882;45.624;11.698;2022-12-18T03:03:31;5.40;76.10
66928;DHT22;59882;45.624;11.698;2022-12-18T03:06:22;5.40;76.10
66928;DHT22;59882;45.624;11.698;2022-12-18T03:08:56;5.40;76.60
66928;DHT22;59882;45.624;11.698;2022-12-18T03:11:25;5.40;76.70
66928;DHT22;59882;45.624;11.698;2022-12-18T03:14:11;5.30;77.10
66928;DHT22;59882;45.624;11.698;2022-12-18T03:16:40;5.30;77.50
66928;DHT22;59882;45.624;11.698;2022-12-18T03:19:16;5.20;77.40
66928;DHT22;59882;45.624;11.698;2022-12-18T03:21:47;5.20;77.90
66928;DHT22;59882;45.624;11.698;2022-12-18T03:24:15;5.10;78.10
66928;DHT22;59882;45.624;11.698;2022-12-18T03:26:44;5.10;78.20
66928;DHT22;59882;45.624;11.698;2022-12-18T03:29:33;5.00;78.40
66928;DHT22;59882;45.624;11.698;2022-12-18T03:32:10;5.00;78.40
66928;DHT22;59882;45.624;11.698;2022-12-18T03:34:39;5.00;78.30
66928;DHT22;59882;45.624;11.698;2022-12-18T03:37:06;5.00;78.50
66928;DHT22;59882;45.624;11.698;2022-12-18T03:39:33;5.00;78.80
66928;DHT22;59882;45.624;11.698;2022-12-18T03:42:01;4.90;78.80
66928;DHT22;59882;45.624;11.698;2022-12-18T03:50:15;4.80;78.90
66928;DHT22;59882;45.624;11.698;2022-12-18T03:52:49;4.90;78.80
66928;DHT22;59882;45.624;11.698;2022-12-18T03:55:18;4.90;78.80
66928;DHT22;59882;45.624;11.698;2022-12-18T03:57:45;4.80;78.80
66928;DHT22;59882;45.624;11.698;2022-12-18T04:00:14;4.80;79.00
66928;DHT22;59882;45.624;11.698;2022-12-18T04:02:55;4.80;78.80
66928;DHT22;59882;45.624;11.698;2022-12-18T04:05:22;4.80;78.90
66928;DHT22;59882;45.624;11.698;2022-12-18T04:07:50;4.80;79.00
66928;DHT22;59882;45.624;11.698;2022-12-18T04:10:17;4.80;79.00
66928;DHT22;59882;45.624;11.698;2022-12-18T04:12:43;4.80;79.50
66928;DHT22;59882;45.624;11.698;2022-12-18T04:15:09;4.80;79.50
66928;DHT22;59882;45.624;11.698;2022-12-18T04:17:35;4.70;79.40
66928;DHT22;59882;45.624;11.698;2022-12-18T04:20:01;4.70;79.50
66928;DHT22;59882;45.624;11.698;2022-12-18T04:22:27;4.70;79.60
66928;DHT22;59882;45.624;11.698;2022-12-18T04:24:52;4.60;79.60
66928;DHT22;59882;45.624;11.698;2022-12-18T04:27:18;4.60;79.60
66928;DHT22;59882;45.624;11.698;2022-12-18T04:29:44;4.60;79.50
66928;DHT22;59882;45.624;11.698;2022-12-18T04:32:09;4.60;79.60
66928;DHT22;59882;45.624;11.698;2022-12-18T04:34:35;4.60;79.50
66928;DHT22;59882;45.624;11.698;2022-12-18T04:37:01;4.60;79.50
66928;DHT22;59882;45.624;11.698;2022-12-18T04:39:26;4.50;79.40
66928;DHT22;59882;45.624;11.698;2022-12-18T04:41:52;4.50;79.60
66928;DHT22;59882;45.624;11.698;2022-12-18T04:44:18;4.40;79.70
66928;DHT22;59882;45.624;11.698;2022-12-18T04:46:43;4.40;79.60
66928;DHT22;59882;45.624;11.698;2022-12-18T04:49:09;4.30;79.80
66928;DHT22;59882;45.624;11.698;2022-12-18T04:51:36;4.30;79.90
66928;DHT22;59882;45.624;11.698;2022-12-18T04:54:02;4.30;79.90
66928;DHT22;59882;45.624;11.698;2022-12-18T04:56:28;4.30;79.90
66928;DHT22;59882;45.624;11.698;2022-12-18T04:58:53;4.30;80.00
66928;DHT22;59882;45.624;11.698;2022-12-18T05:01:19;4.30;79.90
66928;DHT22;59882;45.624;11.698;2022-12-18T05:03:45;4.20;80.10
66928;DHT22;59882;45.624;11.698;2022-12-18T05:06:10;4.20;80.00
66928;DHT22;59882;45.624;11.698;2022-12-18T05:08:36;4.20;80.20
66928;DHT22;59882;45.624;11.698;2022-12-18T05:11:08;4.10;80.30
66928;DHT22;59882;45.624;11.698;2022-12-18T05:13:34;4.10;80.40
66928;DHT22;59882;45.624;11.698;2022-12-18T05:16:00;4.10;80.40
66928;DHT22;59882;45.624;11.698;2022-12-18T05:18:26;4.10;80.40
66928;DHT22;59882;45.624;11.698;2022-12-18T05:20:53;4.10;80.50
66928;DHT22;59882;45.624;11.698;2022-12-18T05:23:19;4.10;80.50
66928;DHT22;59882;45.624;11.698;2022-12-18T05:25:53;4.10;80.80
66928;DHT22;59882;45.624;11.698;2022-12-18T05:28:19;4.10;80.50
66928;DHT22;59882;45.624;11.698;2022-12-18T05:30:49;4.10;80.40
66928;DHT22;59882;45.624;11.698;2022-12-18T05:33:16;4.10;80.30
66928;DHT22;59882;45.624;11.698;2022-12-18T05:35:42;4.10;80.30
66928;DHT22;59882;45.624;11.698;2022-12-18T05:38:07;4.10;80.40
66928;DHT22;59882;45.624;11.698;2022-12-18T05:40:33;4.10;80.40
66928;DHT22;59882;45.624;11.698;2022-12-18T05:42:59;4.10;80.40
66928;DHT22;59882;45.624;11.698;2022-12-18T05:45:24;4.00;80.30
66928;DHT22;59882;45.624;11.698;2022-12-18T05:47:50;4.00;80.40
66928;DHT22;59882;45.624;11.698;2022-12-18T05:50:15;4.00;80.20
66928;DHT22;59882;45.624;11.698;2022-12-18T05:52:41;3.90;80.10
66928;DHT22;59882;45.624;11.698;2022-12-18T05:55:07;3.90;79.80
66928;DHT22;59882;45.624;11.698;2022-12-18T05:57:32;3.90;79.80
66928;DHT22;59882;45.624;11.698;2022-12-18T05:59:58;3.80;79.80
66928;DHT22;59882;45.624;11.698;2022-12-18T06:02:24;3.80;79.80
66928;DHT22;59882;45.624;11.698;2022-12-18T06:04:49;3.80;79.90
66928;DHT22;59882;45.624;11.698;2022-12-18T06:07:15;3.80;80.00
66928;DHT22;59882;45.624;11.698;2022-12-18T06:09:40;3.80;79.80
66928;DHT22;59882;45.624;11.698;2022-12-18T06:12:06;3.70;79.50
66928;DHT22;59882;45.624;11.698;2022-12-18T06:14:32;3.60;79.50
66928;DHT22;59882;45.624;11.698;2022-12-18T06:16:57;3.50;79.60
66928;DHT22;59882;45.624;11.698;2022-12-18T06:19:23;3.50;79.80
66928;DHT22;59882;45.624;11.698;2022-12-18T06:21:48;3.50;80.00
66928;DHT22;59882;45.624;11.698;2022-12-18T06:24:14;3.40;80.70
66928;DHT22;59882;45.624;11.698;2022-12-18T06:26:40;3.30;80.60
66928;DHT22;59882;45.624;11.698;2022-12-18T06:29:06;3.20;81.00
66928;DHT22;59882;45.624;11.698;2022-12-18T06:31:32;3.10;81.30
66928;DHT22;59882;45.624;11.698;2022-12-18T06:33:58;3.10;81.80
66928;DHT22;59882;45.624;11.698;2022-12-18T06:36:23;3.10;82.00
66928;DHT22;59882;45.624;11.698;2022-12-18T06:38:49;3.10;81.90
66928;DHT22;59882;45.624;11.698;2022-12-18T06:41:20;3.10;81.50
66928;DHT22;59882;45.624;11.698;2022-12-18T06:43:46;3.10;81.80
66928;DHT22;59882;45.624;11.698;2022-12-18T06:46:12;3.10;81.70
66928;DHT22;59882;45.624;11.698;2022-12-18T06:48:38;3.00;81.60
66928;DHT22;59882;45.624;11.698;2022-12-18T06:51:04;3.10;81.60
66928;DHT22;59882;45.624;11.698;2022-12-18T06:53:30;3.10;81.40
66928;DHT22;59882;45.624;11.698;2022-12-18T06:56:00;3.20;81.50
66928;DHT22;59882;45.624;11.698;2022-12-18T06:58:27;3.10;81.50
66928;DHT22;59882;45.624;11.698;2022-12-18T07:00:53;3.20;81.70
66928;DHT22;59882;45.624;11.698;2022-12-18T07:03:18;3.20;81.70
66928;DHT22;59882;45.624;11.698;2022-12-18T07:05:44;3.20;81.60
66928;DHT22;59882;45.624;11.698;2022-12-18T07:08:09;3.20;81.60
66928;DHT22;59882;45.624;11.698;2022-12-18T07:10:41;3.10;81.70
66928;DHT22;59882;45.624;11.698;2022-12-18T07:13:07;3.10;81.70
66928;DHT22;59882;45.624;11.698;2022-12-18T07:15:33;3.10;81.70
66928;DHT22;59882;45.624;11.698;2022-12-18T07:17:58;3.10;81.80
66928;DHT22;59882;45.624;11.698;2022-12-18T07:20:24;3.10;81.70
66928;DHT22;59882;45.624;11.698;2022-12-18T07:22:49;3.10;81.80
66928;DHT22;59882;45.624;11.698;2022-12-18T07:25:15;3.10;82.00
66928;DHT22;59882;45.624;11.698;2022-12-18T07:27:41;3.10;82.10
66928;DHT22;59882;45.624;11.698;2022-12-18T07:30:07;3.10;82.10
66928;DHT22;59882;45.624;11.698;2022-12-18T07:32:33;3.20;82.20
66928;DHT22;59882;45.624;11.698;2022-12-18T07:34:59;3.10;82.30
66928;DHT22;59882;45.624;11.698;2022-12-18T07:37:25;3.10;82.30
66928;DHT22;59882;45.624;11.698;2022-12-18T07:39:51;3.10;82.20
66928;DHT22;59882;45.624;11.698;2022-12-18T07:42:16;3.20;82.30
66928;DHT22;59882;45.624;11.698;2022-12-18T07:45:00;3.20;82.40
66928;DHT22;59882;45.624;11.698;2022-12-18T07:47:29;3.20;82.40
66928;DHT22;59882;45.624;11.698;2022-12-18T07:49:55;3.20;82.30
66928;DHT22;59882;45.624;11.698;2022-12-18T07:52:21;3.30;82.40
66928;DHT22;59882;45.624;11.698;2022-12-18T07:54:47;3.30;82.50
66928;DHT22;59882;45.624;11.698;2022-12-18T07:57:15;3.30;82.60
66928;DHT22;59882;45.624;11.698;2022-12-18T07:59:41;3.40;82.70
66928;DHT22;59882;45.624;11.698;2022-12-18T08:02:07;3.40;82.70
66928;DHT22;59882;45.624;11.698;2022-12-18T08:04:32;3.40;82.60
66928;DHT22;59882;45.624;11.698;2022-12-18T08:06:58;3.50;82.70
66928;DHT22;59882;45.624;11.698;2022-12-18T08:09:24;3.50;83.00
66928;DHT22;59882;45.624;11.698;2022-12-18T08:11:49;3.60;83.20
66928;DHT22;59882;45.624;11.698;2022-12-18T08:14:15;3.60;83.20
66928;DHT22;59882;45.624;11.698;2022-12-18T08:16:41;3.60;83.20
66928;DHT22;59882;45.624;11.698;2022-12-18T08:19:06;3.60;83.20
66928;DHT22;59882;45.624;11.698;2022-12-18T08:21:32;3.70;83.30
66928;DHT22;59882;45.624;11.698;2022-12-18T08:24:00;3.80;83.00
66928;DHT22;59882;45.624;11.698;2022-12-18T08:26:28;3.80;83.00
66928;DHT22;59882;45.624;11.698;2022-12-18T08:28:55;3.80;82.90
66928;DHT22;59882;45.624;11.698;2022-12-18T08:31:22;3.80;82.90
66928;DHT22;59882;45.624;11.698;2022-12-18T08:33:52;3.90;82.90
66928;DHT22;59882;45.624;11.698;2022-12-18T08:36:18;3.90;82.90
66928;DHT22;59882;45.624;11.698;2022-12-18T08:38:44;3.90;82.80
66928;DHT22;59882;45.624;11.698;2022-12-18T08:41:12;4.00;82.80
66928;DHT22;59882;45.624;11.698;2022-12-18T08:43:38;4.10;82.60
66928;DHT22;59882;45.624;11.698;2022-12-18T08:46:25;4.10;82.60
66928;DHT22;59882;45.624;11.698;2022-12-18T08:48:51;4.20;82.50
66928;DHT22;59882;45.624;11.698;2022-12-18T08:51:18;4.20;82.40
66928;DHT22;59882;45.624;11.698;2022-12-18T08:53:44;4.20;82.20
66928;DHT22;59882;45.624;11.698;2022-12-18T08:56:10;4.30;82.00
66928;DHT22;59882;45.624;11.698;2022-12-18T08:58:36;4.30;82.00
66928;DHT22;59882;45.624;11.698;2022-12-18T09:01:03;4.30;81.90
66928;DHT22;59882;45.624;11.698;2022-12-18T09:03:29;4.40;81.90
66928;DHT22;59882;45.624;11.698;2022-12-18T09:05:55;4.40;81.80
66928;DHT22;59882;45.624;11.698;2022-12-18T09:08:20;4.40;82.00
66928;DHT22;59882;45.624;11.698;2022-12-18T09:10:47;4.50;82.00
66928;DHT22;59882;45.624;11.698;2022-12-18T09:13:13;4.50;81.80
66928;DHT22;59882;45.624;11.698;2022-12-18T09:15:45;4.50;81.90
66928;DHT22;59882;45.624;11.698;2022-12-18T09:18:11;4.60;81.90
66928;DHT22;59882;45.624;11.698;2022-12-18T09:20:38;4.60;82.00
66928;DHT22;59882;45.624;11.698;2022-12-18T09:23:04;4.60;81.70
66928;DHT22;59882;45.624;11.698;2022-12-18T09:25:31;4.60;81.60
66928;DHT22;59882;45.624;11.698;2022-12-18T09:28:02;4.60;81.60
66928;DHT22;59882;45.624;11.698;2022-12-18T09:30:28;4.70;81.80
66928;DHT22;59882;45.624;11.698;2022-12-18T09:32:54;4.70;81.20
66928;DHT22;59882;45.624;11.698;2022-12-18T09:35:19;4.70;81.00
66928;DHT22;59882;45.624;11.698;2022-12-18T09:37:45;4.70;81.20
66928;DHT22;59882;45.624;11.698;2022-12-18T09:40:20;4.80;81.40
66928;DHT22;59882;45.624;11.698;2022-12-18T09:42:54;4.80;81.30
66928;DHT22;59882;45.624;11.698;2022-12-18T09:45:22;4.90;80.80
66928;DHT22;59882;45.624;11.698;2022-12-18T09:47:50;4.90;80.90
66928;DHT22;59882;45.624;11.698;2022-12-18T09:50:34;5.00;80.60
66928;DHT22;59882;45.624;11.698;2022-12-18T09:53:06;5.10;80.60
66928;DHT22;59882;45.624;11.698;2022-12-18T09:55:45;5.10;80.40
66928;DHT22;59882;45.624;11.698;2022-12-18T09:58:47;5.20;80.00
66928;DHT22;59882;45.624;11.698;2022-12-18T10:01:18;5.30;79.40
66928;DHT22;59882;45.624;11.698;2022-12-18T10:03:46;5.30;79.30
66928;DHT22;59882;45.624;11.698;2022-12-18T10:17:06;5.70;75.70
66928;DHT22;59882;45.624;11.698;2022-12-18T10:19:58;5.70;75.70
66928;DHT22;59882;45.624;11.698;2022-12-18T10:25:01;5.80;74.40
66928;DHT22;59882;45.624;11.698;2022-12-18T10:27:30;5.90;73.00
66928;DHT22;59882;45.624;11.698;2022-12-18T10:29:57;5.90;73.50
66928;DHT22;59882;45.624;11.698;2022-12-18T10:32:25;6.00;73.40
66928;DHT22;59882;45.624;11.698;2022-12-18T10:34:55;6.10;73.90
66928;DHT22;59882;45.624;11.698;2022-12-18T10:37:24;6.20;73.00
66928;DHT22;59882;45.624;11.698;2022-12-18T10:42:37;6.20;72.20
66928;DHT22;59882;45.624;11.698;2022-12-18T10:45:13;6.30;72.20
66928;DHT22;59882;45.624;11.698;2022-12-18T10:47:44;6.30;71.90
66928;DHT22;59882;45.624;11.698;2022-12-18T10:50:24;6.40;71.10
66928;DHT22;59882;45.624;11.698;2022-12-18T10:53:00;6.50;72.20
66928;DHT22;59882;45.624;11.698;2022-12-18T10:55:33;6.50;72.10
66928;DHT22;59882;45.624;11.698;2022-12-18T11:06:17;6.80;70.30
66928;DHT22;59882;45.624;11.698;2022-12-18T11:08:45;6.90;67.30
66928;DHT22;59882;45.624;11.698;2022-12-18T11:11:23;6.90;67.20
66928;DHT22;59882;45.624;11.698;2022-12-18T11:14:13;7.00;67.60
66928;DHT22;59882;45.624;11.698;2022-12-18T11:16:46;7.10;68.40
66928;DHT22;59882;45.624;11.698;2022-12-18T11:19:39;7.10;66.20
66928;DHT22;59882;45.624;11.698;2022-12-18T11:22:28;7.20;66.60
66928;DHT22;59882;45.624;11.698;2022-12-18T11:27:20;7.30;68.00
66928;DHT22;59882;45.624;11.698;2022-12-18T11:29:49;7.40;68.20
66928;DHT22;59882;45.624;11.698;2022-12-18T11:34:48;7.50;65.70
66928;DHT22;59882;45.624;11.698;2022-12-18T11:37:15;7.60;65.80
66928;DHT22;59882;45.624;11.698;2022-12-18T11:40:01;7.70;65.30
66928;DHT22;59882;45.624;11.698;2022-12-18T11:42:38;7.70;66.40
66928;DHT22;59882;45.624;11.698;2022-12-18T11:50:22;7.90;63.50
66928;DHT22;59882;45.624;11.698;2022-12-18T11:52:49;8.00;61.80
66928;DHT22;59882;45.624;11.698;2022-12-18T12:00:19;8.20;62.10
66928;DHT22;59882;45.624;11.698;2022-12-18T12:03:13;8.30;65.30
66928;DHT22;59882;45.624;11.698;2022-12-18T12:05:54;8.80;69.60
66928;DHT22;59882;45.624;11.698;2022-12-18T12:08:56;10.40;65.90
66928;DHT22;59882;45.624;11.698;2022-12-18T12:11:56;12.80;60.50
66928;DHT22;59882;45.624;11.698;2022-12-18T12:17:42;17.50;50.60
66928;DHT22;59882;45.624;11.698;2022-12-18T12:26:14;21.90;40.90
66928;DHT22;59882;45.624;11.698;2022-12-18T12:34:34;24.30;36.20
66928;DHT22;59882;45.624;11.698;2022-12-18T12:39:44;25.20;30.00
66928;DHT22;59882;45.624;11.698;2022-12-18T12:42:19;25.50;32.40
66928;DHT22;59882;45.624;11.698;2022-12-18T12:45:06;25.80;31.10
66928;DHT22;59882;45.624;11.698;2022-12-18T12:47:41;26.10;26.90
66928;DHT22;59882;45.624;11.698;2022-12-18T12:50:14;26.20;30.50
66928;DHT22;59882;45.624;11.698;2022-12-18T12:52:45;26.40;25.30
66928;DHT22;59882;45.624;11.698;2022-12-18T12:55:20;26.40;24.20
66928;DHT22;59882;45.624;11.698;2022-12-18T12:57:56;26.30;26.60
66928;DHT22;59882;45.624;11.698;2022-12-18T13:00:23;26.30;25.20
66928;DHT22;59882;45.624;11.698;2022-12-18T13:03:12;26.20;26.70
66928;DHT22;59882;45.624;11.698;2022-12-18T13:08:26;26.00;28.40
66928;DHT22;59882;45.624;11.698;2022-12-18T13:10:53;26.00;28.00
66928;DHT22;59882;45.624;11.698;2022-12-18T13:13:55;25.90;24.70
66928;DHT22;59882;45.624;11.698;2022-12-18T13:16:23;25.90;27.90
66928;DHT22;59882;45.624;11.698;2022-12-18T13:18:53;25.70;25.60
66928;DHT22;59882;45.624;11.698;2022-12-18T13:21:28;25.60;25.60
66928;DHT22;59882;45.624;11.698;2022-12-18T13:23:55;25.50;25.20
66928;DHT22;59882;45.624;11.698;2022-12-18T13:28:52;25.20;25.10
66928;DHT22;59882;45.624;11.698;2022-12-18T13:34:20;24.70;26.00
66928;DHT22;59882;45.624;11.698;2022-12-18T13:36:47;24.50;25.60
66928;DHT22;59882;45.624;11.698;2022-12-18T13:41:52;24.10;25.60
66928;DHT22;59882;45.624;11.698;2022-12-18T13:44:33;23.80;27.10
66928;DHT22;59882;45.624;11.698;2022-12-18T13:47:00;23.40;27.80
66928;DHT22;59882;45.624;11.698;2022-12-18T13:49:41;23.00;28.60
66928;DHT22;59882;45.624;11.698;2022-12-18T13:52:28;22.60;28.60
66928;DHT22;59882;45.624;11.698;2022-12-18T13:55:00;22.20;28.90
66928;DHT22;59882;45.624;11.698;2022-12-18T13:57:36;21.90;28.50
66928;DHT22;59882;45.624;11.698;2022-12-18T14:02:48;20.80;29.20
66928;DHT22;59882;45.624;11.698;2022-12-18T14:05:31;20.10;29.80
66928;DHT22;59882;45.624;11.698;2022-12-18T14:08:05;19.40;32.00
66928;DHT22;59882;45.624;11.698;2022-12-18T14:10:32;18.70;32.80
66928;DHT22;59882;45.624;11.698;2022-12-18T14:13:05;17.90;33.50
66928;DHT22;59882;45.624;11.698;2022-12-18T14:15:43;17.30;34.50
66928;DHT22;59882;45.624;11.698;2022-12-18T14:21:21;16.10;36.50
66928;DHT22;59882;45.624;11.698;2022-12-18T14:23:49;15.70;37.10
66928;DHT22;59882;45.624;11.698;2022-12-18T14:26:29;15.30;37.60
66928;DHT22;59882;45.624;11.698;2022-12-18T14:28:57;14.80;38.30
66928;DHT22;59882;45.624;11.698;2022-12-18T14:31:25;14.40;39.10
66928;DHT22;59882;45.624;11.698;2022-12-18T14:33:52;14.10;39.80
66928;DHT22;59882;45.624;11.698;2022-12-18T14:36:21;13.80;40.60
66928;DHT22;59882;45.624;11.698;2022-12-18T14:38:58;13.50;41.60
66928;DHT22;59882;45.624;11.698;2022-12-18T14:41:25;13.20;42.30
66928;DHT22;59882;45.624;11.698;2022-12-18T14:43:52;12.90;42.80
66928;DHT22;59882;45.624;11.698;2022-12-18T14:46:41;12.60;43.50
66928;DHT22;59882;45.624;11.698;2022-12-18T14:49:26;12.40;44.10
66928;DHT22;59882;45.624;11.698;2022-12-18T14:51:56;12.20;45.10
66928;DHT22;59882;45.624;11.698;2022-12-18T14:54:23;11.90;45.60
66928;DHT22;59882;45.624;11.698;2022-12-18T14:57:06;11.80;46.30
66928;DHT22;59882;45.624;11.698;2022-12-18T14:59:38;11.60;46.60
66928;DHT22;59882;45.624;11.698;2022-12-18T15:02:08;11.40;47.20
66928;DHT22;59882;45.624;11.698;2022-12-18T15:04:41;11.30;47.90
66928;DHT22;59882;45.624;11.698;2022-12-18T15:12:36;10.80;49.30
66928;DHT22;59882;45.624;11.698;2022-12-18T15:15:03;10.70;49.90
66928;DHT22;59882;45.624;11.698;2022-12-18T15:17:29;10.50;50.10
66928;DHT22;59882;45.624;11.698;2022-12-18T15:20:11;10.40;50.50
66928;DHT22;59882;45.624;11.698;2022-12-18T15:22:37;10.30;51.00
66928;DHT22;59882;45.624;11.698;2022-12-18T15:25:19;10.20;51.20
66928;DHT22;59882;45.624;11.698;2022-12-18T15:27:49;10.10;51.50
66928;DHT22;59882;45.624;11.698;2022-12-18T15:30:16;9.90;51.90
66928;DHT22;59882;45.624;11.698;2022-12-18T15:32:43;9.80;52.10
66928;DHT22;59882;45.624;11.698;2022-12-18T15:35:21;9.80;52.50
66928;DHT22;59882;45.624;11.698;2022-12-18T15:37:48;9.60;52.90
66928;DHT22;59882;45.624;11.698;2022-12-18T15:40:19;9.50;53.60
66928;DHT22;59882;45.624;11.698;2022-12-18T15:42:46;9.40;53.70
66928;DHT22;59882;45.624;11.698;2022-12-18T15:45:31;9.30;54.00
66928;DHT22;59882;45.624;11.698;2022-12-18T15:47:57;9.10;54.40
66928;DHT22;59882;45.624;11.698;2022-12-18T15:50:22;9.00;54.70
66928;DHT22;59882;45.624;11.698;2022-12-18T15:52:51;9.00;55.00
66928;DHT22;59882;45.624;11.698;2022-12-18T15:55:20;8.90;55.40
66928;DHT22;59882;45.624;11.698;2022-12-18T15:58:05;8.80;55.80
66928;DHT22;59882;45.624;11.698;2022-12-18T16:00:32;8.80;56.10
66928;DHT22;59882;45.624;11.698;2022-12-18T16:02:59;8.70;56.40
66928;DHT22;59882;45.624;11.698;2022-12-18T16:05:26;8.60;56.70
66928;DHT22;59882;45.624;11.698;2022-12-18T16:07:52;8.50;57.00
66928;DHT22;59882;45.624;11.698;2022-12-18T16:10:18;8.40;57.40
66928;DHT22;59882;45.624;11.698;2022-12-18T16:12:44;8.40;57.60
66928;DHT22;59882;45.624;11.698;2022-12-18T16:15:12;8.30;57.90
66928;DHT22;59882;45.624;11.698;2022-12-18T16:17:39;8.20;58.30
66928;DHT22;59882;45.624;11.698;2022-12-18T16:20:08;8.10;58.50
66928;DHT22;59882;45.624;11.698;2022-12-18T16:22:37;8.10;58.80
66928;DHT22;59882;45.624;11.698;2022-12-18T16:25:02;8.00;60.40
66928;DHT22;59882;45.624;11.698;2022-12-18T16:27:30;7.90;60.10
66928;DHT22;59882;45.624;11.698;2022-12-18T16:29:56;7.80;59.70
66928;DHT22;59882;45.624;11.698;2022-12-18T16:32:22;7.80;61.70
66928;DHT22;59882;45.624;11.698;2022-12-18T16:34:47;7.70;61.90
66928;DHT22;59882;45.624;11.698;2022-12-18T16:37:15;7.60;61.50
66928;DHT22;59882;45.624;11.698;2022-12-18T16:39:41;7.50;62.20
66928;DHT22;59882;45.624;11.698;2022-12-18T16:42:16;7.40;62.70
66928;DHT22;59882;45.624;11.698;2022-12-18T16:44:44;7.30;62.70
66928;DHT22;59882;45.624;11.698;2022-12-18T16:47:10;7.30;61.70
66928;DHT22;59882;45.624;11.698;2022-12-18T16:49:36;7.30;61.80
66928;DHT22;59882;45.624;11.698;2022-12-18T16:52:03;7.30;62.30
66928;DHT22;59882;45.624;11.698;2022-12-18T16:54:29;7.20;62.10
66928;DHT22;59882;45.624;11.698;2022-12-18T16:56:55;7.20;62.20
66928;DHT22;59882;45.624;11.698;2022-12-18T16:59:21;7.10;62.20
66928;DHT22;59882;45.624;11.698;2022-12-18T17:01:46;7.10;62.30
66928;DHT22;59882;45.624;11.698;2022-12-18T17:04:12;7.10;62.50
66928;DHT22;59882;45.624;11.698;2022-12-18T17:06:41;7.10;63.80
66928;DHT22;59882;45.624;11.698;2022-12-18T17:09:11;7.00;64.40
66928;DHT22;59882;45.624;11.698;2022-12-18T17:11:37;6.90;63.80
66928;DHT22;59882;45.624;11.698;2022-12-18T17:14:07;6.80;64.80
66928;DHT22;59882;45.624;11.698;2022-12-18T17:16:33;6.80;65.20
66928;DHT22;59882;45.624;11.698;2022-12-18T17:18:58;6.70;65.30
66928;DHT22;59882;45.624;11.698;2022-12-18T17:21:24;6.60;66.00
66928;DHT22;59882;45.624;11.698;2022-12-18T17:23:50;6.60;66.20
66928;DHT22;59882;45.624;11.698;2022-12-18T17:26:15;6.50;66.40
66928;DHT22;59882;45.624;11.698;2022-12-18T17:28:41;6.40;66.30
66928;DHT22;59882;45.624;11.698;2022-12-18T17:31:17;6.40;67.00
66928;DHT22;59882;45.624;11.698;2022-12-18T17:33:43;6.30;66.90
66928;DHT22;59882;45.624;11.698;2022-12-18T17:36:09;6.30;66.40